sensor_id;sensor_type;location;lat;lon;timestamp;temperature;humidity
42199;DHT22;27868;45.184;5.786;2022-11-25T00:03:53;9.40;97.40
42199;DHT22;27868;45.184;5.786;2022-11-25T00:06:39;9.30;97.40
42199;DHT22;27868;45.184;5.786;2022-11-25T00:09:23;9.40;97.30
42199;DHT22;27868;45.184;5.786;2022-11-25T00:12:08;9.40;97.30
42199;DHT22;27868;45.184;5.786;2022-11-25T00:14:53;9.40;97.40
42199;DHT22;27868;45.184;5.786;2022-11-25T00:17:37;9.40;97.40
42199;DHT22;27868;45.184;5.786;2022-11-25T00:20:22;9.30;97.30
42199;DHT22;27868;45.184;5.786;2022-11-25T00:23:06;9.40;97.40
42199;DHT22;27868;45.184;5.786;2022-11-25T00:25:50;9.40;97.40
42199;DHT22;27868;45.184;5.786;2022-11-25T00:28:35;9.40;97.40
42199;DHT22;27868;45.184;5.786;2022-11-25T00:31:24;9.40;97.40
42199;DHT22;27868;45.184;5.786;2022-11-25T00:34:13;9.40;97.40
42199;DHT22;27868;45.184;5.786;2022-11-25T00:36:58;9.40;97.40
42199;DHT22;27868;45.184;5.786;2022-11-25T00:39:42;9.40;97.40
42199;DHT22;27868;45.184;5.786;2022-11-25T00:42:27;9.40;97.50
42199;DHT22;27868;45.184;5.786;2022-11-25T00:45:30;9.40;97.50
42199;DHT22;27868;45.184;5.786;2022-11-25T00:48:14;9.40;97.40
42199;DHT22;27868;45.184;5.786;2022-11-25T00:50:59;9.40;97.40
42199;DHT22;27868;45.184;5.786;2022-11-25T00:53:43;9.40;97.50
42199;DHT22;27868;45.184;5.786;2022-11-25T00:56:28;9.40;97.50
42199;DHT22;27868;45.184;5.786;2022-11-25T00:59:13;9.40;97.50
42199;DHT22;27868;45.184;5.786;2022-11-25T01:01:58;9.40;97.40
42199;DHT22;27868;45.184;5.786;2022-11-25T01:04:43;9.40;97.40
42199;DHT22;27868;45.184;5.786;2022-11-25T01:07:28;9.40;97.40
42199;DHT22;27868;45.184;5.786;2022-11-25T01:10:12;9.40;97.50
42199;DHT22;27868;45.184;5.786;2022-11-25T01:12:57;9.40;97.50
42199;DHT22;27868;45.184;5.786;2022-11-25T01:15:41;9.40;97.60
42199;DHT22;27868;45.184;5.786;2022-11-25T01:18:27;9.40;97.60
42199;DHT22;27868;45.184;5.786;2022-11-25T01:21:14;9.40;97.60
42199;DHT22;27868;45.184;5.786;2022-11-25T01:24:01;9.40;97.50
42199;DHT22;27868;45.184;5.786;2022-11-25T01:26:46;9.50;97.40
42199;DHT22;27868;45.184;5.786;2022-11-25T01:29:30;9.40;97.50
42199;DHT22;27868;45.184;5.786;2022-11-25T01:32:15;9.40;97.60
42199;DHT22;27868;45.184;5.786;2022-11-25T01:34:59;9.40;97.60
42199;DHT22;27868;45.184;5.786;2022-11-25T01:37:44;9.40;97.60
42199;DHT22;27868;45.184;5.786;2022-11-25T01:40:28;9.40;97.50
42199;DHT22;27868;45.184;5.786;2022-11-25T01:43:13;9.40;97.60
42199;DHT22;27868;45.184;5.786;2022-11-25T01:46:24;9.40;97.60
42199;DHT22;27868;45.184;5.786;2022-11-25T01:49:29;9.50;97.60
42199;DHT22;27868;45.184;5.786;2022-11-25T01:52:23;9.40;97.60
42199;DHT22;27868;45.184;5.786;2022-11-25T01:55:20;9.40;97.60
42199;DHT22;27868;45.184;5.786;2022-11-25T01:58:11;9.50;97.70
42199;DHT22;27868;45.184;5.786;2022-11-25T02:00:58;9.40;97.60
42199;DHT22;27868;45.184;5.786;2022-11-25T02:03:46;9.50;97.70
42199;DHT22;27868;45.184;5.786;2022-11-25T02:06:37;9.40;97.60
42199;DHT22;27868;45.184;5.786;2022-11-25T02:09:24;9.50;97.70
42199;DHT22;27868;45.184;5.786;2022-11-25T02:12:10;9.40;97.60
42199;DHT22;27868;45.184;5.786;2022-11-25T02:14:56;9.50;97.70
42199;DHT22;27868;45.184;5.786;2022-11-25T02:17:43;9.40;97.70
42199;DHT22;27868;45.184;5.786;2022-11-25T02:20:28;9.50;97.70
42199;DHT22;27868;45.184;5.786;2022-11-25T02:26:17;9.40;97.70
42199;DHT22;27868;45.184;5.786;2022-11-25T02:29:01;9.40;97.70
42199;DHT22;27868;45.184;5.786;2022-11-25T02:31:48;9.40;97.70
42199;DHT22;27868;45.184;5.786;2022-11-25T02:34:34;9.50;97.70
42199;DHT22;27868;45.184;5.786;2022-11-25T02:37:20;9.50;97.70
42199;DHT22;27868;45.184;5.786;2022-11-25T02:40:07;9.50;97.70
42199;DHT22;27868;45.184;5.786;2022-11-25T02:42:54;9.40;97.70
42199;DHT22;27868;45.184;5.786;2022-11-25T02:46:04;9.50;97.70
42199;DHT22;27868;45.184;5.786;2022-11-25T02:48:50;9.50;97.70
42199;DHT22;27868;45.184;5.786;2022-11-25T02:51:36;9.50;97.70
42199;DHT22;27868;45.184;5.786;2022-11-25T02:54:21;9.40;97.70
42199;DHT22;27868;45.184;5.786;2022-11-25T02:57:05;9.40;97.70
42199;DHT22;27868;45.184;5.786;2022-11-25T02:59:50;9.50;97.70
42199;DHT22;27868;45.184;5.786;2022-11-25T03:02:34;9.40;97.80
42199;DHT22;27868;45.184;5.786;2022-11-25T03:05:20;9.50;97.80
42199;DHT22;27868;45.184;5.786;2022-11-25T03:08:06;9.50;97.80
42199;DHT22;27868;45.184;5.786;2022-11-25T03:10:51;9.50;97.80
42199;DHT22;27868;45.184;5.786;2022-11-25T03:13:35;9.40;98.00
42199;DHT22;27868;45.184;5.786;2022-11-25T03:16:19;9.50;97.90
42199;DHT22;27868;45.184;5.786;2022-11-25T03:19:04;9.50;97.90
42199;DHT22;27868;45.184;5.786;2022-11-25T03:21:49;9.50;97.90
42199;DHT22;27868;45.184;5.786;2022-11-25T03:24:34;9.50;98.00
42199;DHT22;27868;45.184;5.786;2022-11-25T03:27:18;9.50;98.00
42199;DHT22;27868;45.184;5.786;2022-11-25T03:30:05;9.50;98.00
42199;DHT22;27868;45.184;5.786;2022-11-25T03:32:50;9.50;97.90
42199;DHT22;27868;45.184;5.786;2022-11-25T03:35:34;9.50;97.90
42199;DHT22;27868;45.184;5.786;2022-11-25T03:38:19;9.50;97.80
42199;DHT22;27868;45.184;5.786;2022-11-25T03:41:03;9.50;97.70
42199;DHT22;27868;45.184;5.786;2022-11-25T03:43:48;9.50;97.60
42199;DHT22;27868;45.184;5.786;2022-11-25T03:46:32;9.50;97.50
42199;DHT22;27868;45.184;5.786;2022-11-25T03:49:17;9.50;97.50
42199;DHT22;27868;45.184;5.786;2022-11-25T03:52:02;10.00;97.60
42199;DHT22;27868;45.184;5.786;2022-11-25T03:54:47;9.50;97.30
42199;DHT22;27868;45.184;5.786;2022-11-25T03:57:32;9.40;97.10
42199;DHT22;27868;45.184;5.786;2022-11-25T04:00:17;9.40;97.00
42199;DHT22;27868;45.184;5.786;2022-11-25T04:03:02;9.40;97.00
42199;DHT22;27868;45.184;5.786;2022-11-25T04:05:46;9.40;96.90
42199;DHT22;27868;45.184;5.786;2022-11-25T04:08:31;9.40;96.80
42199;DHT22;27868;45.184;5.786;2022-11-25T04:11:16;9.40;96.70
42199;DHT22;27868;45.184;5.786;2022-11-25T04:14:00;9.30;96.70
42199;DHT22;27868;45.184;5.786;2022-11-25T04:16:45;9.30;96.60
42199;DHT22;27868;45.184;5.786;2022-11-25T04:19:29;9.30;96.60
42199;DHT22;27868;45.184;5.786;2022-11-25T04:22:14;9.30;96.70
42199;DHT22;27868;45.184;5.786;2022-11-25T04:24:58;9.20;96.60
42199;DHT22;27868;45.184;5.786;2022-11-25T04:27:43;9.20;96.90
42199;DHT22;27868;45.184;5.786;2022-11-25T04:30:28;9.20;96.60
42199;DHT22;27868;45.184;5.786;2022-11-25T04:33:13;9.20;96.60
42199;DHT22;27868;45.184;5.786;2022-11-25T04:35:57;9.20;96.70
42199;DHT22;27868;45.184;5.786;2022-11-25T04:38:42;9.20;96.60
42199;DHT22;27868;45.184;5.786;2022-11-25T04:41:27;9.10;96.50
42199;DHT22;27868;45.184;5.786;2022-11-25T04:44:12;9.10;96.60
42199;DHT22;27868;45.184;5.786;2022-11-25T04:46:56;9.10;96.50
42199;DHT22;27868;45.184;5.786;2022-11-25T04:49:41;9.70;96.70
42199;DHT22;27868;45.184;5.786;2022-11-25T04:52:25;9.10;96.60
42199;DHT22;27868;45.184;5.786;2022-11-25T04:55:10;9.00;96.60
42199;DHT22;27868;45.184;5.786;2022-11-25T04:57:55;9.00;96.50
42199;DHT22;27868;45.184;5.786;2022-11-25T05:00:40;9.00;96.40
42199;DHT22;27868;45.184;5.786;2022-11-25T05:03:24;9.00;96.40
42199;DHT22;27868;45.184;5.786;2022-11-25T05:06:09;9.00;96.30
42199;DHT22;27868;45.184;5.786;2022-11-25T05:08:53;9.00;96.20
42199;DHT22;27868;45.184;5.786;2022-11-25T05:11:38;8.80;95.90
42199;DHT22;27868;45.184;5.786;2022-11-25T05:14:23;8.90;95.90
42199;DHT22;27868;45.184;5.786;2022-11-25T05:17:14;8.90;96.00
42199;DHT22;27868;45.184;5.786;2022-11-25T05:19:58;8.90;95.90
42199;DHT22;27868;45.184;5.786;2022-11-25T05:22:43;8.80;95.90
42199;DHT22;27868;45.184;5.786;2022-11-25T05:25:28;8.80;95.80
42199;DHT22;27868;45.184;5.786;2022-11-25T05:28:12;8.80;95.80
42199;DHT22;27868;45.184;5.786;2022-11-25T05:30:57;8.80;95.80
42199;DHT22;27868;45.184;5.786;2022-11-25T05:33:42;8.70;95.70
42199;DHT22;27868;45.184;5.786;2022-11-25T05:36:26;8.70;95.70
42199;DHT22;27868;45.184;5.786;2022-11-25T05:39:11;8.70;95.70
42199;DHT22;27868;45.184;5.786;2022-11-25T05:41:56;8.70;95.70
42199;DHT22;27868;45.184;5.786;2022-11-25T05:44:41;8.60;95.60
42199;DHT22;27868;45.184;5.786;2022-11-25T05:47:25;8.60;95.70
42199;DHT22;27868;45.184;5.786;2022-11-25T05:50:09;8.60;95.60
42199;DHT22;27868;45.184;5.786;2022-11-25T05:52:54;8.60;95.60
42199;DHT22;27868;45.184;5.786;2022-11-25T05:55:39;8.60;95.60
42199;DHT22;27868;45.184;5.786;2022-11-25T05:58:23;8.60;95.60
42199;DHT22;27868;45.184;5.786;2022-11-25T06:01:10;8.50;95.50
42199;DHT22;27868;45.184;5.786;2022-11-25T06:03:59;8.50;95.50
42199;DHT22;27868;45.184;5.786;2022-11-25T06:06:44;8.50;95.50
42199;DHT22;27868;45.184;5.786;2022-11-25T06:09:29;8.50;95.50
42199;DHT22;27868;45.184;5.786;2022-11-25T06:12:13;8.50;95.90
42199;DHT22;27868;45.184;5.786;2022-11-25T06:14:58;8.40;95.60
42199;DHT22;27868;45.184;5.786;2022-11-25T06:17:42;8.40;95.70
42199;DHT22;27868;45.184;5.786;2022-11-25T06:20:27;8.40;95.70
42199;DHT22;27868;45.184;5.786;2022-11-25T06:23:11;8.40;95.80
42199;DHT22;27868;45.184;5.786;2022-11-25T06:26:20;8.40;95.80
42199;DHT22;27868;45.184;5.786;2022-11-25T06:29:05;8.40;95.70
42199;DHT22;27868;45.184;5.786;2022-11-25T06:31:50;8.40;95.70
42199;DHT22;27868;45.184;5.786;2022-11-25T06:34:34;8.30;95.60
42199;DHT22;27868;45.184;5.786;2022-11-25T06:37:20;8.40;95.60
42199;DHT22;27868;45.184;5.786;2022-11-25T06:40:05;8.40;95.70
42199;DHT22;27868;45.184;5.786;2022-11-25T06:42:50;8.30;95.60
42199;DHT22;27868;45.184;5.786;2022-11-25T06:45:35;8.40;95.60
42199;DHT22;27868;45.184;5.786;2022-11-25T06:48:19;8.30;95.40
42199;DHT22;27868;45.184;5.786;2022-11-25T06:51:12;8.30;95.40
42199;DHT22;27868;45.184;5.786;2022-11-25T06:53:57;8.30;95.40
42199;DHT22;27868;45.184;5.786;2022-11-25T06:56:42;8.30;95.40
42199;DHT22;27868;45.184;5.786;2022-11-25T06:59:26;8.20;95.20
42199;DHT22;27868;45.184;5.786;2022-11-25T07:02:11;8.20;95.20
42199;DHT22;27868;45.184;5.786;2022-11-25T07:04:56;8.20;95.20
42199;DHT22;27868;45.184;5.786;2022-11-25T07:07:40;8.20;95.30
42199;DHT22;27868;45.184;5.786;2022-11-25T07:10:25;8.20;95.30
42199;DHT22;27868;45.184;5.786;2022-11-25T07:13:09;8.20;95.60
42199;DHT22;27868;45.184;5.786;2022-11-25T07:15:54;8.20;95.60
42199;DHT22;27868;45.184;5.786;2022-11-25T07:18:39;8.20;95.40
42199;DHT22;27868;45.184;5.786;2022-11-25T07:21:24;8.10;95.40
42199;DHT22;27868;45.184;5.786;2022-11-25T07:24:09;8.10;95.40
42199;DHT22;27868;45.184;5.786;2022-11-25T07:26:54;8.10;95.50
42199;DHT22;27868;45.184;5.786;2022-11-25T07:29:38;8.10;95.50
42199;DHT22;27868;45.184;5.786;2022-11-25T07:32:23;8.10;95.60
42199;DHT22;27868;45.184;5.786;2022-11-25T07:35:08;8.10;95.60
42199;DHT22;27868;45.184;5.786;2022-11-25T07:37:52;8.10;95.50
42199;DHT22;27868;45.184;5.786;2022-11-25T07:40:37;8.00;95.50
42199;DHT22;27868;45.184;5.786;2022-11-25T07:43:21;8.10;95.50
42199;DHT22;27868;45.184;5.786;2022-11-25T07:49:05;8.10;95.50
42199;DHT22;27868;45.184;5.786;2022-11-25T07:51:53;8.10;95.60
42199;DHT22;27868;45.184;5.786;2022-11-25T07:54:38;8.10;95.60
42199;DHT22;27868;45.184;5.786;2022-11-25T07:57:22;8.10;95.60
42199;DHT22;27868;45.184;5.786;2022-11-25T08:00:07;8.10;95.70
42199;DHT22;27868;45.184;5.786;2022-11-25T08:02:52;8.10;95.80
42199;DHT22;27868;45.184;5.786;2022-11-25T08:05:36;8.10;95.80
42199;DHT22;27868;45.184;5.786;2022-11-25T08:08:21;8.10;95.80
42199;DHT22;27868;45.184;5.786;2022-11-25T08:11:08;8.10;95.80
42199;DHT22;27868;45.184;5.786;2022-11-25T08:13:54;8.10;95.90
42199;DHT22;27868;45.184;5.786;2022-11-25T08:16:39;8.10;95.90
42199;DHT22;27868;45.184;5.786;2022-11-25T08:19:24;8.10;95.80
42199;DHT22;27868;45.184;5.786;2022-11-25T08:22:08;8.10;95.80
42199;DHT22;27868;45.184;5.786;2022-11-25T08:24:53;8.10;95.80
42199;DHT22;27868;45.184;5.786;2022-11-25T08:27:37;8.10;95.90
42199;DHT22;27868;45.184;5.786;2022-11-25T08:30:22;8.00;95.90
42199;DHT22;27868;45.184;5.786;2022-11-25T08:33:09;8.10;96.10
42199;DHT22;27868;45.184;5.786;2022-11-25T08:35:54;8.10;96.20
42199;DHT22;27868;45.184;5.786;2022-11-25T08:38:39;8.10;96.20
42199;DHT22;27868;45.184;5.786;2022-11-25T08:41:28;8.10;96.60
42199;DHT22;27868;45.184;5.786;2022-11-25T08:44:13;8.10;96.40
42199;DHT22;27868;45.184;5.786;2022-11-25T08:46:57;8.20;96.40
42199;DHT22;27868;45.184;5.786;2022-11-25T08:49:42;8.20;96.40
42199;DHT22;27868;45.184;5.786;2022-11-25T08:52:26;8.20;96.50
42199;DHT22;27868;45.184;5.786;2022-11-25T08:55:12;8.10;96.60
42199;DHT22;27868;45.184;5.786;2022-11-25T08:57:56;8.20;96.70
42199;DHT22;27868;45.184;5.786;2022-11-25T09:00:42;8.20;96.70
42199;DHT22;27868;45.184;5.786;2022-11-25T09:03:31;8.20;96.70
42199;DHT22;27868;45.184;5.786;2022-11-25T09:06:18;8.30;96.80
42199;DHT22;27868;45.184;5.786;2022-11-25T09:09:03;8.30;96.90
42199;DHT22;27868;45.184;5.786;2022-11-25T09:11:49;8.30;97.00
42199;DHT22;27868;45.184;5.786;2022-11-25T09:14:34;8.30;97.10
42199;DHT22;27868;45.184;5.786;2022-11-25T09:17:18;8.40;97.20
42199;DHT22;27868;45.184;5.786;2022-11-25T09:20:04;8.40;97.30
42199;DHT22;27868;45.184;5.786;2022-11-25T09:22:49;8.40;97.30
42199;DHT22;27868;45.184;5.786;2022-11-25T09:25:34;8.50;97.30
42199;DHT22;27868;45.184;5.786;2022-11-25T09:28:20;8.50;97.30
42199;DHT22;27868;45.184;5.786;2022-11-25T09:31:07;8.50;97.30
42199;DHT22;27868;45.184;5.786;2022-11-25T09:33:52;8.50;97.40
42199;DHT22;27868;45.184;5.786;2022-11-25T09:36:37;8.60;97.50
42199;DHT22;27868;45.184;5.786;2022-11-25T09:39:22;8.70;97.50
42199;DHT22;27868;45.184;5.786;2022-11-25T09:45:29;8.60;97.00
42199;DHT22;27868;45.184;5.786;2022-11-25T10:00:45;8.80;96.60
42199;DHT22;27868;45.184;5.786;2022-11-25T10:03:43;8.80;96.60
42199;DHT22;27868;45.184;5.786;2022-11-25T10:06:32;8.80;96.50
42199;DHT22;27868;45.184;5.786;2022-11-25T10:09:21;8.90;96.50
42199;DHT22;27868;45.184;5.786;2022-11-25T10:12:31;8.90;96.50
42199;DHT22;27868;45.184;5.786;2022-11-25T10:15:29;9.00;96.60
42199;DHT22;27868;45.184;5.786;2022-11-25T10:18:29;8.90;96.50
42199;DHT22;27868;45.184;5.786;2022-11-25T10:21:15;9.00;96.50
42199;DHT22;27868;45.184;5.786;2022-11-25T10:24:02;9.00;96.40
42199;DHT22;27868;45.184;5.786;2022-11-25T10:26:53;9.10;96.60
42199;DHT22;27868;45.184;5.786;2022-11-25T10:29:41;9.10;96.70
42199;DHT22;27868;45.184;5.786;2022-11-25T10:32:28;9.20;96.80
42199;DHT22;27868;45.184;5.786;2022-11-25T10:35:30;9.20;96.80
42199;DHT22;27868;45.184;5.786;2022-11-25T10:38:42;9.20;96.70
42199;DHT22;27868;45.184;5.786;2022-11-25T10:41:36;9.30;96.50
42199;DHT22;27868;45.184;5.786;2022-11-25T10:44:33;9.30;96.70
42199;DHT22;27868;45.184;5.786;2022-11-25T10:57:00;9.40;96.40
42199;DHT22;27868;45.184;5.786;2022-11-25T11:00:06;9.40;96.50
42199;DHT22;27868;45.184;5.786;2022-11-25T11:02:49;9.40;96.80
42199;DHT22;27868;45.184;5.786;2022-11-25T11:05:46;9.40;96.60
42199;DHT22;27868;45.184;5.786;2022-11-25T11:08:41;9.50;96.50
42199;DHT22;27868;45.184;5.786;2022-11-25T11:11:27;9.50;96.30
42199;DHT22;27868;45.184;5.786;2022-11-25T11:14:17;9.60;96.20
42199;DHT22;27868;45.184;5.786;2022-11-25T11:17:02;9.60;96.10
42199;DHT22;27868;45.184;5.786;2022-11-25T11:22:49;9.70;95.70
42199;DHT22;27868;45.184;5.786;2022-11-25T11:25:37;9.60;96.00
42199;DHT22;27868;45.184;5.786;2022-11-25T11:28:38;9.70;95.90
42199;DHT22;27868;45.184;5.786;2022-11-25T11:31:28;9.70;95.80
42199;DHT22;27868;45.184;5.786;2022-11-25T11:37:40;9.80;95.10
42199;DHT22;27868;45.184;5.786;2022-11-25T11:40:43;9.90;94.70
42199;DHT22;27868;45.184;5.786;2022-11-25T11:46:32;10.00;94.40
42199;DHT22;27868;45.184;5.786;2022-11-25T11:49:30;10.00;94.00
42199;DHT22;27868;45.184;5.786;2022-11-25T11:52:29;10.00;94.20
42199;DHT22;27868;45.184;5.786;2022-11-25T11:58:57;10.10;94.20
42199;DHT22;27868;45.184;5.786;2022-11-25T12:11:01;10.30;93.40
42199;DHT22;27868;45.184;5.786;2022-11-25T12:16:53;10.40;92.60
42199;DHT22;27868;45.184;5.786;2022-11-25T12:19:55;10.50;93.10
42199;DHT22;27868;45.184;5.786;2022-11-25T12:25:39;10.50;92.30
42199;DHT22;27868;45.184;5.786;2022-11-25T12:28:29;10.60;92.40
42199;DHT22;27868;45.184;5.786;2022-11-25T12:31:25;10.60;92.40
42199;DHT22;27868;45.184;5.786;2022-11-25T12:34:16;10.70;92.50
42199;DHT22;27868;45.184;5.786;2022-11-25T12:37:17;10.60;92.70
42199;DHT22;27868;45.184;5.786;2022-11-25T12:41:03;10.70;93.10
42199;DHT22;27868;45.184;5.786;2022-11-25T12:49:26;10.80;92.90
42199;DHT22;27868;45.184;5.786;2022-11-25T12:55:23;10.90;93.00
42199;DHT22;27868;45.184;5.786;2022-11-25T13:04:28;11.00;93.20
42199;DHT22;27868;45.184;5.786;2022-11-25T13:13:40;11.20;92.70
42199;DHT22;27868;45.184;5.786;2022-11-25T13:16:30;11.30;92.50
42199;DHT22;27868;45.184;5.786;2022-11-25T13:19:18;11.40;92.00
42199;DHT22;27868;45.184;5.786;2022-11-25T13:22:24;11.40;91.90
42199;DHT22;27868;45.184;5.786;2022-11-25T13:25:33;11.50;91.50
42199;DHT22;27868;45.184;5.786;2022-11-25T13:28:31;11.50;91.30
42199;DHT22;27868;45.184;5.786;2022-11-25T13:31:22;11.50;90.70
42199;DHT22;27868;45.184;5.786;2022-11-25T13:37:36;11.50;90.90
42199;DHT22;27868;45.184;5.786;2022-11-25T13:43:21;11.50;91.40
42199;DHT22;27868;45.184;5.786;2022-11-25T13:46:06;11.60;91.60
42199;DHT22;27868;45.184;5.786;2022-11-25T13:48:50;11.60;91.50
42199;DHT22;27868;45.184;5.786;2022-11-25T13:51:35;11.70;91.60
42199;DHT22;27868;45.184;5.786;2022-11-25T13:54:25;11.60;91.40
42199;DHT22;27868;45.184;5.786;2022-11-25T14:00:00;11.60;91.50
42199;DHT22;27868;45.184;5.786;2022-11-25T14:02:46;11.60;91.60
42199;DHT22;27868;45.184;5.786;2022-11-25T14:08:23;11.60;91.60
42199;DHT22;27868;45.184;5.786;2022-11-25T14:20:33;11.70;91.30
42199;DHT22;27868;45.184;5.786;2022-11-25T14:26:34;11.70;91.60
42199;DHT22;27868;45.184;5.786;2022-11-25T14:29:22;11.70;91.70
42199;DHT22;27868;45.184;5.786;2022-11-25T14:35:21;11.70;91.40
42199;DHT22;27868;45.184;5.786;2022-11-25T14:38:27;11.80;91.50
42199;DHT22;27868;45.184;5.786;2022-11-25T14:41:18;11.80;91.60
42199;DHT22;27868;45.184;5.786;2022-11-25T14:44:08;11.80;91.70
42199;DHT22;27868;45.184;5.786;2022-11-25T14:46:56;11.70;91.60
42199;DHT22;27868;45.184;5.786;2022-11-25T14:49:47;11.80;91.80
42199;DHT22;27868;45.184;5.786;2022-11-25T14:52:34;11.70;91.70
42199;DHT22;27868;45.184;5.786;2022-11-25T14:55:27;11.80;91.70
42199;DHT22;27868;45.184;5.786;2022-11-25T14:58:12;11.80;91.90
42199;DHT22;27868;45.184;5.786;2022-11-25T15:03:41;11.80;91.90
42199;DHT22;27868;45.184;5.786;2022-11-25T15:06:40;11.80;92.00
42199;DHT22;27868;45.184;5.786;2022-11-25T15:09:27;11.80;92.20
42199;DHT22;27868;45.184;5.786;2022-11-25T15:12:15;11.80;92.40
42199;DHT22;27868;45.184;5.786;2022-11-25T15:15:01;11.80;92.60
42199;DHT22;27868;45.184;5.786;2022-11-25T15:17:46;11.80;92.70
42199;DHT22;27868;45.184;5.786;2022-11-25T15:20:31;11.90;92.90
42199;DHT22;27868;45.184;5.786;2022-11-25T15:23:28;11.80;93.00
42199;DHT22;27868;45.184;5.786;2022-11-25T15:26:26;11.80;93.10
42199;DHT22;27868;45.184;5.786;2022-11-25T15:29:12;11.80;93.20
42199;DHT22;27868;45.184;5.786;2022-11-25T15:31:58;11.80;93.30
42199;DHT22;27868;45.184;5.786;2022-11-25T15:34:43;11.80;93.40
42199;DHT22;27868;45.184;5.786;2022-11-25T15:37:28;11.80;93.50
42199;DHT22;27868;45.184;5.786;2022-11-25T15:40:35;11.80;93.50
42199;DHT22;27868;45.184;5.786;2022-11-25T15:43:25;11.80;93.60
42199;DHT22;27868;45.184;5.786;2022-11-25T15:46:11;11.80;93.60
42199;DHT22;27868;45.184;5.786;2022-11-25T15:48:59;11.80;93.60
42199;DHT22;27868;45.184;5.786;2022-11-25T15:51:51;11.80;93.70
42199;DHT22;27868;45.184;5.786;2022-11-25T15:54:43;11.80;93.80
42199;DHT22;27868;45.184;5.786;2022-11-25T15:57:34;11.70;93.90
42199;DHT22;27868;45.184;5.786;2022-11-25T16:00:21;11.80;94.10
42199;DHT22;27868;45.184;5.786;2022-11-25T16:03:20;11.80;94.30
42199;DHT22;27868;45.184;5.786;2022-11-25T16:06:21;11.70;94.50
42199;DHT22;27868;45.184;5.786;2022-11-25T16:09:19;11.80;94.70
42199;DHT22;27868;45.184;5.786;2022-11-25T16:12:05;11.70;94.80
42199;DHT22;27868;45.184;5.786;2022-11-25T16:14:50;11.70;94.90
42199;DHT22;27868;45.184;5.786;2022-11-25T16:17:35;11.70;95.00
42199;DHT22;27868;45.184;5.786;2022-11-25T16:20:22;11.70;95.20
42199;DHT22;27868;45.184;5.786;2022-11-25T16:23:08;11.70;95.40
42199;DHT22;27868;45.184;5.786;2022-11-25T16:26:01;11.70;95.50
42199;DHT22;27868;45.184;5.786;2022-11-25T16:28:52;11.70;95.60
42199;DHT22;27868;45.184;5.786;2022-11-25T16:31:37;11.70;95.80
42199;DHT22;27868;45.184;5.786;2022-11-25T16:34:23;11.70;96.00
42199;DHT22;27868;45.184;5.786;2022-11-25T16:37:08;11.70;96.10
42199;DHT22;27868;45.184;5.786;2022-11-25T16:39:53;11.60;96.10
42199;DHT22;27868;45.184;5.786;2022-11-25T16:42:38;11.70;96.10
42199;DHT22;27868;45.184;5.786;2022-11-25T16:45:27;11.60;96.20
42199;DHT22;27868;45.184;5.786;2022-11-25T16:48:14;11.60;96.30
42199;DHT22;27868;45.184;5.786;2022-11-25T16:51:00;11.60;96.30
42199;DHT22;27868;45.184;5.786;2022-11-25T16:53:46;11.60;96.40
42199;DHT22;27868;45.184;5.786;2022-11-25T16:56:33;11.60;96.50
42199;DHT22;27868;45.184;5.786;2022-11-25T16:59:36;11.70;96.60
42199;DHT22;27868;45.184;5.786;2022-11-25T17:02:21;11.60;96.70
42199;DHT22;27868;45.184;5.786;2022-11-25T17:08:01;11.60;96.90
42199;DHT22;27868;45.184;5.786;2022-11-25T17:10:46;11.60;97.00
42199;DHT22;27868;45.184;5.786;2022-11-25T17:13:31;11.60;97.20
42199;DHT22;27868;45.184;5.786;2022-11-25T17:16:19;11.60;97.30
42199;DHT22;27868;45.184;5.786;2022-11-25T17:19:04;11.60;97.30
42199;DHT22;27868;45.184;5.786;2022-11-25T17:21:48;11.60;97.30
42199;DHT22;27868;45.184;5.786;2022-11-25T17:24:33;11.60;97.30
42199;DHT22;27868;45.184;5.786;2022-11-25T17:27:29;11.60;97.30
42199;DHT22;27868;45.184;5.786;2022-11-25T17:30:21;11.60;97.30
42199;DHT22;27868;45.184;5.786;2022-11-25T17:33:12;11.60;97.40
42199;DHT22;27868;45.184;5.786;2022-11-25T17:35:57;11.60;97.50
42199;DHT22;27868;45.184;5.786;2022-11-25T17:38:42;11.50;97.50
42199;DHT22;27868;45.184;5.786;2022-11-25T17:41:27;11.60;97.60
42199;DHT22;27868;45.184;5.786;2022-11-25T17:44:25;11.60;97.80
42199;DHT22;27868;45.184;5.786;2022-11-25T17:47:12;11.50;97.70
42199;DHT22;27868;45.184;5.786;2022-11-25T17:49:57;11.50;97.70
42199;DHT22;27868;45.184;5.786;2022-11-25T17:52:42;11.50;97.70
42199;DHT22;27868;45.184;5.786;2022-11-25T17:55:26;11.50;97.80
42199;DHT22;27868;45.184;5.786;2022-11-25T17:58:11;11.50;97.80
42199;DHT22;27868;45.184;5.786;2022-11-25T18:00:59;11.50;97.80
42199;DHT22;27868;45.184;5.786;2022-11-25T18:03:43;11.50;97.80
42199;DHT22;27868;45.184;5.786;2022-11-25T18:06:28;11.50;97.90
42199;DHT22;27868;45.184;5.786;2022-11-25T18:09:13;11.50;97.90
42199;DHT22;27868;45.184;5.786;2022-11-25T18:11:59;11.50;97.90
42199;DHT22;27868;45.184;5.786;2022-11-25T18:14:45;11.50;98.00
42199;DHT22;27868;45.184;5.786;2022-11-25T18:17:30;11.50;98.00
42199;DHT22;27868;45.184;5.786;2022-11-25T18:20:22;11.50;98.10
42199;DHT22;27868;45.184;5.786;2022-11-25T18:23:07;11.50;98.10
42199;DHT22;27868;45.184;5.786;2022-11-25T18:25:54;11.50;98.20
42199;DHT22;27868;45.184;5.786;2022-11-25T18:28:40;11.50;98.20
42199;DHT22;27868;45.184;5.786;2022-11-25T18:31:24;11.50;98.20
42199;DHT22;27868;45.184;5.786;2022-11-25T18:34:13;11.50;98.20
42199;DHT22;27868;45.184;5.786;2022-11-25T18:36:59;11.50;98.20
42199;DHT22;27868;45.184;5.786;2022-11-25T18:39:44;11.50;98.20
42199;DHT22;27868;45.184;5.786;2022-11-25T18:42:30;11.50;98.30
42199;DHT22;27868;45.184;5.786;2022-11-25T18:45:22;11.40;98.20
42199;DHT22;27868;45.184;5.786;2022-11-25T18:51:02;11.40;98.20
42199;DHT22;27868;45.184;5.786;2022-11-25T18:53:47;11.40;98.30
42199;DHT22;27868;45.184;5.786;2022-11-25T18:56:33;11.40;98.30
42199;DHT22;27868;45.184;5.786;2022-11-25T18:59:26;11.40;98.30
42199;DHT22;27868;45.184;5.786;2022-11-25T19:02:16;11.40;98.40
42199;DHT22;27868;45.184;5.786;2022-11-25T19:05:01;11.40;98.40
42199;DHT22;27868;45.184;5.786;2022-11-25T19:07:47;11.30;98.30
42199;DHT22;27868;45.184;5.786;2022-11-25T19:10:35;11.30;98.20
42199;DHT22;27868;45.184;5.786;2022-11-25T19:13:32;11.40;98.30
42199;DHT22;27868;45.184;5.786;2022-11-25T19:16:20;11.30;98.20
42199;DHT22;27868;45.184;5.786;2022-11-25T19:19:05;11.30;98.20
42199;DHT22;27868;45.184;5.786;2022-11-25T19:21:50;11.30;98.20
42199;DHT22;27868;45.184;5.786;2022-11-25T19:24:35;11.30;98.20
42199;DHT22;27868;45.184;5.786;2022-11-25T19:27:23;11.30;98.30
42199;DHT22;27868;45.184;5.786;2022-11-25T19:30:15;11.30;98.30
42199;DHT22;27868;45.184;5.786;2022-11-25T19:33:00;11.30;98.30
42199;DHT22;27868;45.184;5.786;2022-11-25T19:35:46;11.30;98.30
42199;DHT22;27868;45.184;5.786;2022-11-25T19:38:31;11.20;98.20
42199;DHT22;27868;45.184;5.786;2022-11-25T19:41:16;11.30;98.30
42199;DHT22;27868;45.184;5.786;2022-11-25T19:44:01;11.30;98.30
42199;DHT22;27868;45.184;5.786;2022-11-25T19:46:47;11.30;98.30
42199;DHT22;27868;45.184;5.786;2022-11-25T19:49:33;11.30;98.40